createdAt,value
2022-11-25T00:01:28.805Z,96964.34
2022-11-25T00:04:00.987Z,96962.06
2022-11-25T00:06:35.394Z,96961.28
2022-11-25T00:09:12.665Z,96966.69
2022-11-25T00:11:42.202Z,96966.31
2022-11-25T00:14:13.809Z,96959.78
2022-11-25T00:16:48.039Z,96962.84
2022-11-25T00:19:15.144Z,96964.78
2022-11-25T00:21:41.727Z,96960.94
2022-11-25T00:24:11.024Z,96970.91
2022-11-25T00:26:40.132Z,96977.09
2022-11-25T00:29:10.928Z,96964.41
2022-11-25T00:31:39.998Z,96971.69
2022-11-25T00:34:07.409Z,96959.41
2022-11-25T00:36:39.856Z,96947.50
2022-11-25T00:39:15.062Z,96948.28
2022-11-25T00:42:01.354Z,96949.81
2022-11-25T00:44:37.710Z,96950.56
2022-11-25T00:47:20.538Z,96947.50
2022-11-25T00:49:52.490Z,96956.72
2022-11-25T00:52:21.682Z,96954.03
2022-11-25T00:54:49.725Z,96942.13
2022-11-25T00:57:18.052Z,96966.28
2022-11-25T00:59:44.722Z,96977.03
2022-11-25T01:02:12.778Z,96976.66
2022-11-25T01:04:39.741Z,96962.09
2022-11-25T01:07:06.654Z,96960.53
2022-11-25T01:09:33.403Z,96960.94
2022-11-25T01:12:02.437Z,96950.94
2022-11-25T01:14:31.810Z,96963.19
2022-11-25T01:17:00.924Z,96963.59
2022-11-25T01:19:30.063Z,96958.63
2022-11-25T01:21:59.078Z,96954.03
2022-11-25T01:24:28.165Z,96944.03
2022-11-25T01:26:55.785Z,96945.97
2022-11-25T01:29:22.598Z,96943.28
2022-11-25T01:31:49.236Z,96937.91
2022-11-25T01:34:21.232Z,96933.28
2022-11-25T01:36:48.040Z,96915.63
2022-11-25T01:39:28.395Z,96904.09
2022-11-25T01:41:58.542Z,96908.69
2022-11-25T01:44:28.571Z,96918.25
2022-11-25T01:47:15.490Z,96928.59
2022-11-25T01:49:49.263Z,96942.81
2022-11-25T01:52:28.880Z,96938.19
2022-11-25T01:55:05.920Z,96955.44
2022-11-25T01:57:52.969Z,96953.09
2022-11-25T02:00:20.306Z,96956.94
2022-11-25T02:02:49.490Z,96955.00
2022-11-25T02:05:21.319Z,96947.31
2022-11-25T02:07:49.713Z,96953.91
2022-11-25T02:10:36.699Z,96949.34
2022-11-25T02:13:05.625Z,96949.00
2022-11-25T02:15:37.174Z,96951.31
2022-11-25T02:18:06.954Z,96945.50
2022-11-25T02:20:38.724Z,96945.16
2022-11-25T02:23:25.805Z,96948.22
2022-11-25T02:25:53.582Z,96945.16
2022-11-25T02:28:29.550Z,96939.78
2022-11-25T02:30:56.706Z,96945.16
2022-11-25T02:33:27.289Z,96947.09
2022-11-25T02:35:55.790Z,96955.16
2022-11-25T02:38:32.204Z,96950.56
2022-11-25T02:41:10.611Z,96950.94
2022-11-25T02:43:40.181Z,96949.03
2022-11-25T02:46:11.579Z,96960.94
2022-11-25T02:49:07.302Z,96950.19
2022-11-25T02:51:32.192Z,96954.03
2022-11-25T02:54:01.736Z,96950.59
2022-11-25T02:56:34.295Z,96942.13
2022-11-25T02:59:04.359Z,96937.53
2022-11-25T03:01:32.262Z,96942.50
2022-11-25T03:04:01.555Z,96937.16
2022-11-25T03:06:31.955Z,96930.25
2022-11-25T03:09:00.832Z,96936.03
2022-11-25T03:11:46.013Z,96932.56
2022-11-25T03:14:14.989Z,96929.88
2022-11-25T03:16:44.128Z,96923.34
2022-11-25T03:19:10.755Z,96932.94
2022-11-25T03:21:37.313Z,96932.56
2022-11-25T03:24:03.961Z,96934.50
2022-11-25T03:26:33.055Z,96930.63
2022-11-25T03:29:01.835Z,96941.03
2022-11-25T03:31:30.794Z,96939.88
2022-11-25T03:34:00.342Z,96940.25
2022-11-25T03:36:26.870Z,96949.09
2022-11-25T03:38:53.385Z,96952.94
2022-11-25T03:41:22.330Z,96952.16
2022-11-25T03:43:51.175Z,96947.53
2022-11-25T03:46:22.789Z,96951.41
2022-11-25T03:48:52.343Z,96951.38
2022-11-25T03:51:18.899Z,96941.38
2022-11-25T03:53:45.429Z,96946.00
2022-11-25T03:56:11.950Z,96937.16
2022-11-25T03:58:38.416Z,96944.84
2022-11-25T04:01:05.253Z,96951.00
2022-11-25T04:03:32.267Z,96954.84
2022-11-25T04:06:01.001Z,96971.75
2022-11-25T04:08:32.385Z,96957.13
2022-11-25T04:10:58.966Z,96956.38
2022-11-25T04:13:25.610Z,96955.97
2022-11-25T04:15:52.470Z,96952.13
2022-11-25T04:18:20.500Z,96963.63
2022-11-25T04:20:47.138Z,96962.88
2022-11-25T04:23:14.168Z,96959.81
2022-11-25T04:25:42.943Z,96957.09
2022-11-25T04:28:09.535Z,96973.59
2022-11-25T04:30:37.630Z,96964.69
2022-11-25T04:33:06.860Z,96963.94
2022-11-25T04:35:33.430Z,96972.72
2022-11-25T04:38:02.199Z,96971.13
2022-11-25T04:40:28.792Z,96966.53
2022-11-25T04:43:03.426Z,96968.41
2022-11-25T04:45:51.636Z,96968.34
2022-11-25T04:48:25.124Z,96965.69
2022-11-25T04:50:56.535Z,96975.22
2022-11-25T04:53:23.045Z,96973.63
2022-11-25T04:55:49.550Z,96975.88
2022-11-25T04:58:36.394Z,96985.03
2022-11-25T05:01:10.351Z,96981.19
2022-11-25T05:03:36.958Z,96979.19
2022-11-25T05:06:07.299Z,96994.53
2022-11-25T05:08:33.852Z,96996.84
2022-11-25T05:11:02.970Z,96984.97
2022-11-25T05:13:32.009Z,96997.22
2022-11-25T05:16:00.295Z,96993.38
2022-11-25T05:18:29.127Z,96990.63
2022-11-25T05:20:55.659Z,96999.44
2022-11-25T05:23:24.495Z,97000.97
2022-11-25T05:25:51.033Z,96995.63
2022-11-25T05:28:19.885Z,96997.53
2022-11-25T05:30:46.487Z,97009.81
2022-11-25T05:33:17.755Z,97010.66
2022-11-25T05:35:44.302Z,97015.72
2022-11-25T05:38:15.544Z,97011.50
2022-11-25T05:40:44.340Z,97016.91
2022-11-25T05:43:15.698Z,97010.78
2022-11-25T05:45:42.297Z,97015.34
2022-11-25T05:48:13.764Z,97016.09
2022-11-25T05:50:42.636Z,97012.66
2022-11-25T05:53:09.175Z,97008.88
2022-11-25T05:55:35.754Z,97014.94
2022-11-25T05:58:03.117Z,97020.81
2022-11-25T06:00:29.664Z,97025.41
2022-11-25T06:02:56.443Z,97020.47
2022-11-25T06:05:25.328Z,97017.44
2022-11-25T06:07:52.376Z,97017.84
2022-11-25T06:10:21.546Z,97022.44
2022-11-25T06:12:53.744Z,97022.47
2022-11-25T06:15:20.285Z,97021.31
2022-11-25T06:17:46.959Z,97028.25
2022-11-25T06:20:15.933Z,97024.03
2022-11-25T06:22:44.724Z,97032.84
2022-11-25T06:25:11.349Z,97026.75
2022-11-25T06:28:04.357Z,97033.31
2022-11-25T06:30:27.107Z,97031.03
2022-11-25T06:32:58.916Z,97029.91
2022-11-25T06:35:25.431Z,97026.06
2022-11-25T06:37:51.948Z,97023.81
2022-11-25T06:40:18.698Z,97015.75
2022-11-25T06:42:45.229Z,97023.09
2022-11-25T06:45:11.789Z,97023.50
2022-11-25T06:47:40.577Z,97028.13
2022-11-25T06:50:07.614Z,97027.38
2022-11-25T06:52:34.579Z,97031.63
2022-11-25T06:55:01.119Z,97038.91
2022-11-25T06:57:30.214Z,97031.19
2022-11-25T06:59:56.730Z,97039.28
2022-11-25T07:02:26.529Z,97046.59
2022-11-25T07:04:53.958Z,97039.72
2022-11-25T07:07:20.645Z,97046.25
2022-11-25T07:09:47.728Z,97046.25
2022-11-25T07:12:16.592Z,97051.28
2022-11-25T07:14:43.122Z,97052.81
2022-11-25T07:17:12.207Z,97058.56
2022-11-25T07:19:39.015Z,97070.50
2022-11-25T07:22:10.049Z,97065.91
2022-11-25T07:24:41.326Z,97067.44
2022-11-25T07:27:08.286Z,97076.69
2022-11-25T07:30:29.222Z,97067.50
2022-11-25T07:32:26.203Z,97084.41
2022-11-25T07:34:52.818Z,97076.34
2022-11-25T07:37:19.357Z,97082.13
2022-11-25T07:39:48.867Z,97079.84
2022-11-25T07:42:17.723Z,97082.53
2022-11-25T07:44:44.297Z,97083.72
2022-11-25T07:47:10.843Z,97086.78
2022-11-25T07:49:37.691Z,97089.88
2022-11-25T07:52:04.679Z,97092.59
2022-11-25T07:54:33.177Z,97088.38
2022-11-25T07:57:01.968Z,97093.75
2022-11-25T07:59:30.706Z,97099.13
2022-11-25T08:01:57.335Z,97094.16
2022-11-25T08:04:23.962Z,97106.47
2022-11-25T08:06:56.000Z,97107.25
2022-11-25T08:09:24.180Z,97103.00
2022-11-25T08:11:51.387Z,97102.59
2022-11-25T08:14:20.969Z,97108.75
2022-11-25T08:16:52.299Z,97119.94
2022-11-25T08:19:21.369Z,97122.25
2022-11-25T08:21:48.152Z,97128.03
2022-11-25T08:24:21.516Z,97124.19
2022-11-25T08:26:54.916Z,97126.06
2022-11-25T08:29:21.428Z,97129.16
2022-11-25T08:31:48.053Z,97135.69
2022-11-25T08:34:20.893Z,97138.41
2022-11-25T08:36:49.713Z,97135.72
2022-11-25T08:39:44.275Z,97139.56
2022-11-25T08:42:06.088Z,97146.50
2022-11-25T08:44:35.281Z,97154.94
2022-11-25T08:47:03.997Z,97160.72
2022-11-25T08:49:36.174Z,97158.00
2022-11-25T08:52:09.691Z,97159.97
2022-11-25T08:54:36.548Z,97157.25
2022-11-25T08:57:05.327Z,97163.41
2022-11-25T08:59:37.140Z,97162.25
2022-11-25T09:02:06.578Z,97163.00
2022-11-25T09:04:33.878Z,97168.00
2022-11-25T09:07:00.973Z,97179.53
2022-11-25T09:09:27.838Z,97176.03
2022-11-25T09:11:59.678Z,97181.06
2022-11-25T09:14:26.358Z,97179.91
2022-11-25T09:16:53.040Z,97192.28
2022-11-25T09:19:20.520Z,97193.06
2022-11-25T09:21:49.717Z,97201.91
2022-11-25T09:24:16.254Z,97204.59
2022-11-25T09:26:50.353Z,97201.16
2022-11-25T09:29:19.254Z,97198.47
2022-11-25T09:31:50.046Z,97206.16
2022-11-25T09:34:19.603Z,97204.59
2022-11-25T09:36:46.269Z,97215.78
2022-11-25T09:39:15.565Z,97214.63
2022-11-25T09:42:34.935Z,97205.00
2022-11-25T09:45:22.830Z,97214.25
2022-11-25T09:48:21.613Z,97213.84
2022-11-25T09:51:08.975Z,97222.34
2022-11-25T09:53:47.031Z,97230.03
2022-11-25T09:56:28.846Z,97226.19
2022-11-25T09:59:34.364Z,97236.97
2022-11-25T10:02:14.951Z,97236.59
2022-11-25T10:04:49.333Z,97234.66
2022-11-25T10:07:28.813Z,97225.81
2022-11-25T10:10:01.884Z,97222.72
2022-11-25T10:12:32.629Z,97210.41
2022-11-25T10:15:05.380Z,97205.00
2022-11-25T10:17:45.955Z,97190.78
2022-11-25T10:20:35.389Z,97194.63
2022-11-25T10:23:28.396Z,97196.91
2022-11-25T10:26:02.915Z,97198.44
2022-11-25T10:28:36.487Z,97197.25
2022-11-25T10:31:15.274Z,97192.63
2022-11-25T10:33:58.569Z,97184.09
2022-11-25T10:36:30.925Z,97187.19
2022-11-25T10:39:03.095Z,97192.19
2022-11-25T10:41:52.146Z,97199.88
2022-11-25T10:44:32.234Z,97195.22
2022-11-25T10:47:29.178Z,97194.41
2022-11-25T10:50:20.483Z,97196.34
2022-11-25T10:52:55.348Z,97193.16
2022-11-25T10:55:33.564Z,97192.34
2022-11-25T10:58:28.044Z,97201.22
2022-11-25T11:01:16.999Z,97193.06
2022-11-25T11:03:45.262Z,97199.22
2022-11-25T11:06:32.246Z,97186.44
2022-11-25T11:08:58.978Z,97177.09
2022-11-25T11:11:25.836Z,97186.31
2022-11-25T11:14:18.680Z,97188.16
2022-11-25T11:16:53.152Z,97183.06
2022-11-25T11:19:29.565Z,97186.22
2022-11-25T11:21:57.384Z,97183.22
2022-11-25T11:24:42.552Z,97186.41
2022-11-25T11:27:22.784Z,97177.22
2022-11-25T11:30:11.034Z,97179.53
2022-11-25T11:32:42.306Z,97182.63
2022-11-25T11:35:58.853Z,97187.66
2022-11-25T11:38:35.402Z,97187.22
2022-11-25T11:41:31.352Z,97191.06
2022-11-25T11:43:57.791Z,97192.91
2022-11-25T11:46:42.638Z,97194.06
2022-11-25T11:49:30.694Z,97187.44
2022-11-25T11:52:15.836Z,97192.78
2022-11-25T11:54:47.626Z,97195.72
2022-11-25T11:57:44.071Z,97200.69
2022-11-25T12:00:18.919Z,97199.97
2022-11-25T12:03:05.317Z,97202.69
2022-11-25T12:05:39.248Z,97200.38
2022-11-25T12:08:29.091Z,97202.31
2022-11-25T12:11:00.775Z,97192.63
2022-11-25T12:13:36.163Z,97195.28
2022-11-25T12:16:24.483Z,97202.25
2022-11-25T12:18:56.754Z,97203.13
2022-11-25T12:21:41.442Z,97202.50
2022-11-25T12:24:21.670Z,97207.91
2022-11-25T12:26:50.506Z,97214.72
2022-11-25T12:29:44.754Z,97221.63
2022-11-25T12:32:23.211Z,97219.03
2022-11-25T12:35:12.871Z,97217.50
2022-11-25T12:38:10.568Z,97214.81
2022-11-25T12:40:53.287Z,97214.72
2022-11-25T12:43:25.603Z,97216.59
2022-11-25T12:46:11.245Z,97223.13
2022-11-25T12:48:41.492Z,97220.78
2022-11-25T12:51:24.524Z,97224.97
2022-11-25T12:53:58.176Z,97222.28
2022-11-25T12:56:39.351Z,97221.50
2022-11-25T12:59:28.254Z,97217.97
2022-11-25T13:02:06.215Z,97226.81
2022-11-25T13:04:39.696Z,97228.78
2022-11-25T13:07:12.278Z,97232.63
2022-11-25T13:09:50.305Z,97230.72
2022-11-25T13:12:44.950Z,97246.94
2022-11-25T13:15:18.002Z,97245.78
2022-11-25T13:17:52.774Z,97240.81
2022-11-25T13:20:34.026Z,97251.22
2022-11-25T13:23:24.855Z,97250.06
2022-11-25T13:26:14.765Z,97260.13
2022-11-25T13:28:41.353Z,97265.53
2022-11-25T13:31:14.135Z,97264.78
2022-11-25T13:33:43.515Z,97264.44
2022-11-25T13:36:44.947Z,97274.50
2022-11-25T13:39:40.158Z,97277.59
2022-11-25T13:42:25.922Z,97279.56
2022-11-25T13:44:58.472Z,97281.47
2022-11-25T13:47:28.228Z,97283.03
2022-11-25T13:50:00.152Z,97277.25
2022-11-25T13:52:56.882Z,97279.94
2022-11-25T13:55:32.068Z,97283.78
2022-11-25T13:58:12.871Z,97294.22
2022-11-25T14:01:02.318Z,97292.69
2022-11-25T14:03:28.832Z,97300.78
2022-11-25T14:05:55.354Z,97298.13
2022-11-25T14:08:29.741Z,97298.09
2022-11-25T14:11:18.067Z,97314.69
2022-11-25T14:14:09.442Z,97317.75
2022-11-25T14:16:51.011Z,97313.13
2022-11-25T14:19:54.502Z,97327.03
2022-11-25T14:22:48.039Z,97325.09
2022-11-25T14:25:34.471Z,97324.75
2022-11-25T14:28:08.412Z,97324.75
2022-11-25T14:30:53.556Z,97327.81
2022-11-25T14:33:57.431Z,97334.34
2022-11-25T14:36:31.963Z,97339.38
2022-11-25T14:39:05.976Z,97340.16
2022-11-25T14:41:38.022Z,97341.72
2022-11-25T14:44:23.178Z,97340.56
2022-11-25T14:47:03.729Z,97339.44
2022-11-25T14:50:05.250Z,97342.53
2022-11-25T14:52:36.490Z,97352.94
2022-11-25T14:55:08.817Z,97352.94
2022-11-25T14:57:44.168Z,97355.66
2022-11-25T15:00:15.368Z,97366.47
2022-11-25T15:02:54.159Z,97363.38
2022-11-25T15:05:26.178Z,97369.94
2022-11-25T15:07:57.768Z,97374.56
2022-11-25T15:10:54.361Z,97381.13
2022-11-25T15:13:36.206Z,97385.34
2022-11-25T15:16:30.377Z,97383.44
2022-11-25T15:19:05.803Z,97388.44
2022-11-25T15:22:14.976Z,97388.84
2022-11-25T15:24:53.310Z,97387.28
2022-11-25T15:27:27.499Z,97403.06
2022-11-25T15:29:57.247Z,97408.06
2022-11-25T15:32:25.665Z,97409.19
2022-11-25T15:34:56.786Z,97418.44
2022-11-25T15:37:24.171Z,97417.63
2022-11-25T15:40:29.367Z,97419.53
2022-11-25T15:43:07.405Z,97417.22
2022-11-25T15:45:44.495Z,97420.28
2022-11-25T15:48:37.646Z,97420.63
2022-11-25T15:51:25.921Z,97432.97
2022-11-25T15:53:57.778Z,97431.41
2022-11-25T15:56:27.259Z,97439.13
2022-11-25T15:59:01.708Z,97439.88
2022-11-25T16:01:29.937Z,97441.38
2022-11-25T16:04:12.349Z,97444.84
2022-11-25T16:07:00.316Z,97447.91
2022-11-25T16:09:31.422Z,97450.19
2022-11-25T16:12:06.541Z,97457.50
2022-11-25T16:14:37.905Z,97455.94
2022-11-25T16:17:10.061Z,97458.63
2022-11-25T16:19:47.629Z,97451.31
2022-11-25T16:22:17.171Z,97462.81
2022-11-25T16:24:48.990Z,97457.84
2022-11-25T16:27:22.722Z,97463.94
2022-11-25T16:30:11.461Z,97474.31
2022-11-25T16:32:40.579Z,97481.22
2022-11-25T16:35:16.511Z,97490.47
2022-11-25T16:37:48.510Z,97498.94
2022-11-25T16:40:16.858Z,97495.69
2022-11-25T16:42:48.480Z,97501.47
2022-11-25T16:45:22.878Z,97509.53
2022-11-25T16:47:51.985Z,97514.56
2022-11-25T16:50:19.922Z,97510.81
2022-11-25T16:52:49.780Z,97507.69
2022-11-25T16:55:18.707Z,97516.56
2022-11-25T16:57:47.942Z,97513.88
2022-11-25T17:00:17.144Z,97516.97
2022-11-25T17:02:47.161Z,97527.78
2022-11-25T17:05:29.981Z,97532.28
2022-11-25T17:07:59.562Z,97531.16
2022-11-25T17:10:29.222Z,97529.13
2022-11-25T17:12:56.643Z,97541.78
2022-11-25T17:15:30.458Z,97544.47
2022-11-25T17:17:57.071Z,97547.09
2022-11-25T17:20:25.193Z,97554.03
2022-11-25T17:22:53.037Z,97552.53
2022-11-25T17:25:25.609Z,97552.63
2022-11-25T17:27:52.850Z,97551.94
2022-11-25T17:30:24.432Z,97556.88
2022-11-25T17:33:04.080Z,97567.91
2022-11-25T17:35:30.963Z,97574.13
2022-11-25T17:38:01.485Z,97577.91
2022-11-25T17:40:30.478Z,97584.06
2022-11-25T17:42:59.421Z,97589.44
2022-11-25T17:45:26.055Z,97595.59
2022-11-25T17:47:52.637Z,97595.19
2022-11-25T17:50:23.434Z,97593.22
2022-11-25T17:52:55.574Z,97598.25
2022-11-25T17:55:22.903Z,97603.59
2022-11-25T17:57:49.762Z,97607.41
2022-11-25T18:00:19.349Z,97616.31
2022-11-25T18:02:48.593Z,97615.78
2022-11-25T18:05:18.543Z,97620.69
2022-11-25T18:07:45.214Z,97623.31
2022-11-25T18:10:16.163Z,97635.22
2022-11-25T18:12:45.015Z,97635.22
2022-11-25T18:15:24.484Z,97637.84
2022-11-25T18:17:53.577Z,97646.69
2022-11-25T18:20:23.075Z,97652.78
2022-11-25T18:22:51.847Z,97648.50
2022-11-25T18:25:27.007Z,97645.44
2022-11-25T18:27:56.486Z,97649.38
2022-11-25T18:30:27.969Z,97654.09
2022-11-25T18:32:58.281Z,97655.38
2022-11-25T18:35:31.200Z,97663.88
2022-11-25T18:38:04.272Z,97664.72
2022-11-25T18:40:40.186Z,97668.69
2022-11-25T18:43:13.090Z,97672.59
2022-11-25T18:45:45.642Z,97666.41
2022-11-25T18:48:23.440Z,97679.06
2022-11-25T18:50:54.993Z,97682.66
2022-11-25T18:53:24.221Z,97683.09
2022-11-25T18:55:50.806Z,97694.09
2022-11-25T18:58:23.729Z,97693.22
2022-11-25T19:00:54.667Z,97700.25
2022-11-25T19:03:25.211Z,97699.53
2022-11-25T19:05:54.271Z,97713.53
2022-11-25T19:08:23.745Z,97719.00
2022-11-25T19:10:50.768Z,97724.47
2022-11-25T19:13:26.247Z,97717.28
2022-11-25T19:15:56.070Z,97722.31
2022-11-25T19:18:27.460Z,97727.03
2022-11-25T19:20:54.471Z,97728.13
2022-11-25T19:23:25.527Z,97734.50
2022-11-25T19:25:54.139Z,97724.25
2022-11-25T19:28:21.815Z,97727.75
2022-11-25T19:30:50.858Z,97737.81
2022-11-25T19:33:27.768Z,97743.63
2022-11-25T19:35:54.325Z,97750.22
2022-11-25T19:38:26.050Z,97750.97
2022-11-25T19:40:57.033Z,97752.53
2022-11-25T19:43:28.812Z,97761.06
2022-11-25T19:45:56.961Z,97762.59
2022-11-25T19:48:28.352Z,97772.59
2022-11-25T19:51:04.675Z,97776.06
2022-11-25T19:53:36.219Z,97784.09
2022-11-25T19:56:06.460Z,97776.13
2022-11-25T19:58:35.308Z,97783.44
2022-11-25T20:01:06.001Z,97792.78
2022-11-25T20:03:33.188Z,97792.31
2022-11-25T20:06:04.299Z,97790.75
2022-11-25T20:08:33.607Z,97802.31
2022-11-25T20:11:00.290Z,97796.91
2022-11-25T20:13:29.103Z,97806.53
2022-11-25T20:15:57.734Z,97814.19
2022-11-25T20:18:26.351Z,97809.25
2022-11-25T20:21:04.401Z,97814.22
2022-11-25T20:23:43.355Z,97810.00
2022-11-25T20:26:18.206Z,97813.44
2022-11-25T20:28:47.197Z,97827.69
2022-11-25T20:31:18.323Z,97828.44
2022-11-25T20:33:44.861Z,97833.81
2022-11-25T20:36:18.229Z,97831.53
2022-11-25T20:38:54.610Z,97836.16
2022-11-25T20:41:27.538Z,97841.97
2022-11-25T20:43:55.279Z,97845.88
2022-11-25T20:46:24.611Z,97851.09
2022-11-25T20:48:56.589Z,97853.47
2022-11-25T20:51:24.532Z,97857.94
2022-11-25T20:53:53.871Z,97863.44
2022-11-25T20:56:23.028Z,97865.75
2022-11-25T20:58:49.854Z,97870.00
2022-11-25T21:01:21.780Z,97880.66
2022-11-25T21:03:54.051Z,97876.84
2022-11-25T21:06:22.942Z,97873.00
2022-11-25T21:08:54.903Z,97882.16
2022-11-25T21:11:25.229Z,97886.16
2022-11-25T21:13:52.092Z,97885.47
2022-11-25T21:16:23.528Z,97880.47
2022-11-25T21:18:52.462Z,97884.00
2022-11-25T21:21:28.570Z,97892.09
2022-11-25T21:23:55.245Z,97890.53
2022-11-25T21:26:26.584Z,97899.03
2022-11-25T21:28:54.652Z,97902.44
2022-11-25T21:31:24.357Z,97889.59
2022-11-25T21:33:59.768Z,97899.25
2022-11-25T21:36:29.437Z,97890.78
2022-11-25T21:39:09.782Z,97896.63
2022-11-25T21:41:36.534Z,97897.03
2022-11-25T21:44:06.092Z,97899.72
2022-11-25T21:46:32.780Z,97900.88
2022-11-25T21:49:01.816Z,97900.19
2022-11-25T21:51:30.568Z,97903.22
2022-11-25T21:53:57.128Z,97893.22
2022-11-25T21:56:30.920Z,97904.78
2022-11-25T21:58:59.818Z,97905.16
2022-11-25T22:01:28.966Z,97911.72
2022-11-25T22:03:55.839Z,97912.09
2022-11-25T22:06:30.107Z,97913.75
2022-11-25T22:08:59.459Z,97913.97
2022-11-25T22:11:34.714Z,97918.53
2022-11-25T22:14:09.331Z,97919.66
2022-11-25T22:16:38.569Z,97917.69
2022-11-25T22:19:10.069Z,97915.34
2022-11-25T22:21:36.653Z,97919.91
2022-11-25T22:24:13.595Z,97919.44
2022-11-25T22:26:40.407Z,97924.00
2022-11-25T22:29:14.178Z,97934.19
2022-11-25T22:31:41.652Z,97929.13
2022-11-25T22:34:23.419Z,97937.91
2022-11-25T22:36:51.271Z,97941.19
2022-11-25T22:39:18.921Z,97940.66
2022-11-25T22:41:49.321Z,97942.38
2022-11-25T22:44:22.805Z,97944.50
2022-11-25T22:46:54.793Z,97942.13
2022-11-25T22:49:44.362Z,97937.16
2022-11-25T22:52:23.264Z,97939.50
2022-11-25T22:54:52.341Z,97934.00
2022-11-25T22:57:18.888Z,97935.81
2022-11-25T22:59:45.408Z,97933.47
2022-11-25T23:02:38.513Z,97931.19
2022-11-25T23:05:17.441Z,97941.16
2022-11-25T23:07:46.600Z,97951.81
2022-11-25T23:10:18.117Z,97954.50
2022-11-25T23:12:44.766Z,97943.53
2022-11-25T23:15:16.316Z,97951.69
2022-11-25T23:17:48.859Z,97963.84
2022-11-25T23:20:24.771Z,97961.44
2022-11-25T23:22:51.269Z,97956.41
2022-11-25T23:25:24.518Z,97952.94
2022-11-25T23:27:53.464Z,97955.84
2022-11-25T23:30:22.823Z,97960.31
2022-11-25T23:32:53.554Z,97962.50
2022-11-25T23:35:27.615Z,97958.81
2022-11-25T23:37:56.454Z,97971.69
2022-11-25T23:40:26.580Z,97977.78
2022-11-25T23:42:58.399Z,97966.88
2022-11-25T23:45:27.906Z,97971.56
2022-11-25T23:47:59.123Z,97971.22
2022-11-25T23:50:29.844Z,97972.53
2022-11-25T23:53:03.261Z,97981.28
2022-11-25T23:55:33.635Z,97976.13
2022-11-25T23:58:04.406Z,97981.31
